Time;durP1;ratioP1;P1;durP2;ratioP2;P2;SDS_P1;SDS_P2;PMS_P1;PMS_P2;Temp;Humidity;BMP_temperature;BMP_pressure;BME280_temperature;BME280_humidity;BME280_pressure;Samples;Min_cycle;Max_cycle;Signal;HPM_P1;HPM_P2
2023/01/04 00:01:13;;;;;;;1999.90;999.90;;;;;;;8.49;100.00;99244.16;4976560;28;20062;-76
2023/01/04 00:03:39;;;;;;;1999.90;999.90;;;;;;;8.54;100.00;99241.53;4976406;28;20387;-76
2023/01/04 00:06:06;;;;;;;1999.90;999.90;;;;;;;8.54;100.00;99243.41;4976362;28;20030;-77
2023/01/04 00:08:32;;;;;;;1999.90;999.90;;;;;;;8.56;100.00;99241.25;4976561;28;20054;-76
2023/01/04 00:11:11;;;;;;;1999.90;999.90;;;;;;;8.53;100.00;99239.84;4977432;28;20093;-77
2023/01/04 00:13:36;;;;;;;1999.90;999.90;;;;;;;8.46;100.00;99239.19;4977781;28;20023;-76
2023/01/04 00:16:15;;;;;;;1999.90;999.90;;;;;;;8.49;100.00;99243.31;4977289;28;20035;-76
2023/01/04 00:18:41;;;;;;;1999.90;999.90;;;;;;;8.50;100.00;99251.25;4977470;28;20073;-77
2023/01/04 00:21:10;;;;;;;1999.90;999.90;;;;;;;8.45;100.00;99256.66;4977386;28;20491;-77
2023/01/04 00:23:37;;;;;;;1999.90;999.90;;;;;;;8.46;100.00;99261.00;4977219;28;20050;-76
2023/01/04 00:26:09;;;;;;;1999.90;999.90;;;;;;;8.41;100.00;99274.56;4976280;28;20050;-77
2023/01/04 00:28:36;;;;;;;1999.90;999.90;;;;;;;8.44;100.00;99268.63;4976814;28;20058;-76
2023/01/04 00:31:06;;;;;;;1999.90;999.90;;;;;;;8.49;100.00;99273.31;4976635;28;20022;-76
2023/01/04 00:33:31;;;;;;;1999.90;999.90;;;;;;;8.46;100.00;99271.91;4976551;28;20026;-76
2023/01/04 00:36:04;;;;;;;1999.90;999.90;;;;;;;8.46;100.00;99282.00;4977186;28;20049;-77
2023/01/04 00:38:31;;;;;;;1999.90;999.90;;;;;;;8.48;100.00;99275.25;4977103;28;20558;-76
2023/01/04 00:40:56;;;;;;;1999.90;999.90;;;;;;;8.46;100.00;99277.38;4976412;28;20034;-75
2023/01/04 00:43:22;;;;;;;1999.90;999.90;;;;;;;8.54;100.00;99274.25;4974853;28;20046;-76
2023/01/04 00:45:47;;;;;;;1999.90;999.90;;;;;;;8.50;100.00;99283.97;4976182;28;20384;-75
2023/01/04 00:48:12;;;;;;;1999.90;999.90;;;;;;;8.55;100.00;99275.06;4976481;28;20118;-76
2023/01/04 00:50:38;;;;;;;1999.90;999.90;;;;;;;8.59;100.00;99279.75;4977337;28;20054;-76
2023/01/04 00:53:03;;;;;;;1999.90;999.90;;;;;;;8.57;100.00;99281.09;4974918;28;20050;-76
2023/01/04 00:55:29;;;;;;;1999.90;999.90;;;;;;;8.49;100.00;99270.59;4976419;28;20846;-75
2023/01/04 00:57:54;;;;;;;1999.90;999.90;;;;;;;8.49;100.00;99276.88;4975950;28;20031;-76
2023/01/04 01:00:19;;;;;;;1999.90;999.90;;;;;;;8.54;100.00;99279.69;4961551;28;20050;-77
2023/01/04 01:02:45;;;;;;;1999.90;999.90;;;;;;;8.53;100.00;99280.75;4956680;28;20066;-76
2023/01/04 01:05:10;;;;;;;1999.90;999.90;;;;;;;8.49;100.00;99290.50;4955155;28;20460;-76
2023/01/04 01:07:35;;;;;;;1999.90;999.90;;;;;;;8.58;100.00;99283.56;4957101;28;20051;-76
2023/01/04 01:10:01;;;;;;;1999.90;999.90;;;;;;;8.57;100.00;99292.00;4957191;28;20043;-76
2023/01/04 01:12:26;;;;;;;1999.90;999.90;;;;;;;8.56;100.00;99291.16;4957064;28;20038;-76
2023/01/04 01:14:54;;;;;;;1999.90;999.90;;;;;;;8.53;100.00;99291.66;4972138;28;20121;-76
2023/01/04 01:17:19;;;;;;;1999.90;999.90;;;;;;;8.54;100.00;99284.31;4956619;28;20040;-76
2023/01/04 01:19:45;;;;;;;1999.90;999.90;;;;;;;8.46;100.00;99293.72;4956882;28;20484;-77
2023/01/04 01:22:10;;;;;;;1999.90;999.90;;;;;;;8.45;100.00;99281.19;4957218;28;20019;-76
2023/01/04 01:24:35;;;;;;;1999.90;999.90;;;;;;;8.47;100.00;99272.75;4956914;29;20035;-77
2023/01/04 01:27:01;;;;;;;1999.90;999.90;;;;;;;8.47;100.00;99278.19;4957975;28;20023;-77
2023/01/04 01:29:26;;;;;;;1999.90;999.90;;;;;;;8.44;100.00;99282.25;4957261;28;20854;-76
2023/01/04 01:31:51;;;;;;;1999.90;999.90;;;;;;;8.47;100.00;99284.47;4958144;28;20037;-77
2023/01/04 01:34:17;;;;;;;1999.90;999.90;;;;;;;8.47;100.00;99289.94;4957966;28;20023;-76
2023/01/04 01:36:42;;;;;;;1999.90;999.90;;;;;;;8.49;100.00;99279.59;4957524;28;20066;-77
2023/01/04 01:39:07;;;;;;;1999.90;999.90;;;;;;;8.44;100.00;99289.59;4958537;28;20027;-77
2023/01/04 01:41:34;;;;;;;1999.90;999.90;;;;;;;8.46;100.00;99287.44;4958454;28;20065;-76
2023/01/04 01:44:01;;;;;;;1999.90;999.90;;;;;;;8.45;100.00;99297.56;4957950;28;20093;-77
2023/01/04 01:46:40;;;;;;;1999.90;999.90;;;;;;;8.39;100.00;99293.09;4958424;28;20030;-76
2023/01/04 01:49:12;;;;;;;1999.90;999.90;;;;;;;8.42;100.00;99292.59;4958303;28;20039;-76
2023/01/04 01:51:38;;;;;;;1999.90;999.90;;;;;;;8.49;100.00;99293.22;4960004;28;20024;-77
2023/01/04 01:54:09;;;;;;;1999.90;999.90;;;;;;;8.48;100.00;99297.06;4960288;28;20023;-75
2023/01/04 01:56:38;;;;;;;1999.90;999.90;;;;;;;8.38;100.00;99291.44;4959315;28;20372;-76
2023/01/04 01:59:04;;;;;;;1999.90;999.90;;;;;;;8.45;100.00;99299.44;4976475;28;20105;-77
2023/01/04 02:01:31;;;;;;;1999.90;999.90;;;;;;;8.35;100.00;99291.94;4978313;28;20488;-76
2023/01/04 02:03:57;;;;;;;1999.90;999.90;;;;;;;8.39;100.00;99284.09;4977813;28;20106;-77
2023/01/04 02:06:31;;;;;;;1999.90;999.90;;;;;;;8.42;100.00;99292.59;4977629;28;20084;-77
2023/01/04 02:08:58;;;;;;;1999.90;999.90;;;;;;;8.32;100.00;99294.31;4979559;28;20031;-76
2023/01/04 02:11:25;;;;;;;1999.90;999.90;;;;;;;8.42;100.00;99291.75;4981217;28;20061;-76
2023/01/04 02:17:12;;;;;;;1999.90;999.90;;;;;;;8.37;100.00;99288.94;4977327;28;20498;-76
2023/01/04 02:20:09;;;;;;;1999.90;999.90;;;;;;;8.48;100.00;99286.16;4977521;28;20045;-77
2023/01/04 02:22:42;;;;;;;1999.90;999.90;;;;;;;8.38;100.00;99285.97;4975917;28;20034;-75
2023/01/04 02:25:37;;;;;;;1999.90;999.90;;;;;;;8.45;100.00;99285.81;4977335;28;20026;-76
2023/01/04 02:28:21;;;;;;;1999.90;999.90;;;;;;;8.47;100.00;99284.47;4976244;28;20054;-78
2023/01/04 02:31:20;;;;;;;1999.90;999.90;;;;;;;8.53;100.00;99272.59;4977871;28;20038;-76
2023/01/04 02:33:58;;;;;;;1999.90;999.90;;;;;;;8.50;100.00;99272.25;4977612;28;20070;-77
2023/01/04 02:36:46;;;;;;;1999.90;999.90;;;;;;;8.42;100.00;99272.69;4977923;28;20038;-77
2023/01/04 02:39:20;;;;;;;1999.90;999.90;;;;;;;8.38;100.00;99274.25;4978098;28;20069;-78
2023/01/04 02:41:56;;;;;;;1999.90;999.90;;;;;;;8.39;100.00;99271.28;4978637;28;20031;-77
2023/01/04 02:44:53;;;;;;;1999.90;999.90;;;;;;;8.49;100.00;99267.84;4979626;28;20057;-78
2023/01/04 02:50:48;;;;;;;1999.90;999.90;;;;;;;8.39;100.00;99271.28;4962257;28;20118;-78
2023/01/04 02:53:18;;;;;;;1999.90;999.90;;;;;;;8.29;100.00;99271.13;4977929;28;20554;-77
2023/01/04 02:55:52;;;;;;;1999.90;999.90;;;;;;;8.29;100.00;99271.13;4977702;28;20027;-76
2023/01/04 02:58:30;;;;;;;1999.90;999.90;;;;;;;8.30;100.00;99270.03;4977731;28;20027;-77
2023/01/04 03:07:36;;;;;;;1999.90;999.90;;;;;;;8.41;100.00;99268.28;4973356;28;20502;-76
2023/01/04 03:10:14;;;;;;;1999.90;999.90;;;;;;;8.48;100.00;99271.69;4975315;28;20546;-77
2023/01/04 03:12:47;;;;;;;1999.90;999.90;;;;;;;8.40;100.00;99272.09;4975365;28;20123;-76
2023/01/04 03:15:19;;;;;;;1999.90;999.90;;;;;;;8.43;100.00;99272.41;4975862;28;20055;-76
2023/01/04 03:17:54;;;;;;;1999.90;999.90;;;;;;;8.46;100.00;99269.19;4976245;28;20041;-76
2023/01/04 03:20:21;;;;;;;1999.90;999.90;;;;;;;8.43;100.00;99268.84;4976131;28;20031;-75
2023/01/04 03:37:16;;;;;;;1999.90;999.90;;;;;;;8.33;100.00;99272.25;4980061;28;20078;-77
2023/01/04 03:49:13;;;;;;;1999.90;999.90;;;;;;;8.21;100.00;99268.75;4960589;29;20038;-77
2023/01/04 03:51:39;;;;;;;1999.90;999.90;;;;;;;8.16;100.00;99270.56;4958382;28;20047;-76
2023/01/04 03:54:22;;;;;;;1999.90;999.90;;;;;;;8.20;100.00;99271.75;4958087;28;20031;-75
2023/01/04 03:56:49;;;;;;;1999.90;999.90;;;;;;;8.13;100.00;99266.44;4987517;28;20030;-77
2023/01/04 03:59:15;;;;;;;1999.90;999.90;;;;;;;8.17;100.00;99269.50;4999084;28;20053;-76
2023/01/04 04:01:42;;;;;;;1999.90;999.90;;;;;;;8.20;100.00;99263.56;4998832;28;20026;-76
2023/01/04 04:09:36;;;;;;;1999.90;999.90;;;;;;;8.19;100.00;99264.63;4998329;28;20070;-77
2023/01/04 04:12:01;;;;;;;1999.90;999.90;;;;;;;8.23;100.00;99265.78;4997493;28;20026;-76
2023/01/04 04:14:26;;;;;;;1999.90;999.90;;;;;;;8.21;100.00;99265.19;4998577;28;20121;-77
2023/01/04 04:16:52;;;;;;;1999.90;999.90;;;;;;;8.19;100.00;99270.91;4998783;28;20034;-77
2023/01/04 04:19:17;;;;;;;1999.90;999.90;;;;;;;8.25;100.00;99274.53;4998373;28;20114;-76
2023/01/04 04:21:42;;;;;;;1999.90;999.90;;;;;;;8.25;100.00;99277.25;4998570;28;20034;-77
2023/01/04 04:24:26;;;;;;;1999.90;999.90;;;;;;;8.22;100.00;99281.31;4998400;28;20026;-77
2023/01/04 04:26:53;;;;;;;1999.90;999.90;;;;;;;8.28;100.00;99279.53;4998834;28;20042;-76
2023/01/04 04:29:19;;;;;;;1999.90;999.90;;;;;;;8.30;100.00;99286.38;4996609;28;20046;-76
2023/01/04 04:31:45;;;;;;;1999.90;999.90;;;;;;;8.32;100.00;99292.44;4998387;28;20037;-77
2023/01/04 04:34:10;;;;;;;1999.90;999.90;;;;;;;8.31;100.00;99293.50;4997336;28;20058;-76
2023/01/04 04:36:36;;;;;;;1999.90;999.90;;;;;;;8.32;100.00;99288.88;4970033;28;20054;-77
2023/01/04 04:39:02;;;;;;;1999.90;999.90;;;;;;;8.29;100.00;99287.47;4960102;28;20035;-77
2023/01/04 04:41:37;;;;;;;1999.90;999.90;;;;;;;8.23;100.00;99280.25;4960485;28;20028;-77
2023/01/04 04:44:03;;;;;;;1999.90;999.90;;;;;;;8.22;100.00;99281.31;4959495;29;20031;-78
2023/01/04 04:46:29;;;;;;;1999.90;999.90;;;;;;;8.26;100.00;99282.47;4958967;28;20093;-77
2023/01/04 04:48:54;;;;;;;1999.90;999.90;;;;;;;8.22;100.00;99280.47;4958831;28;20466;-77
2023/01/04 04:51:19;;;;;;;1999.90;999.90;;;;;;;8.21;100.00;99278.81;4958899;28;20023;-77
2023/01/04 04:53:45;;;;;;;1999.90;999.90;;;;;;;8.16;100.00;99282.31;4958584;28;20058;-76
2023/01/04 04:56:10;;;;;;;1999.90;999.90;;;;;;;8.18;100.00;99285.59;4958124;28;20489;-76
2023/01/04 04:58:36;;;;;;;1999.90;999.90;;;;;;;8.15;100.00;99285.25;4962917;28;20539;-76
2023/01/04 05:01:01;;;;;;;1999.90;999.90;;;;;;;8.15;100.00;99280.66;4960871;28;20081;-78
2023/01/04 05:03:30;;;;;;;1999.90;999.90;;;;;;;8.23;100.00;99273.97;4959991;28;20074;-78
2023/01/04 05:05:55;;;;;;;1999.90;999.90;;;;;;;8.26;100.00;99263.41;4959106;28;20035;-77
2023/01/04 05:08:21;;;;;;;1999.90;999.90;;;;;;;8.19;100.00;99260.00;4958778;28;20054;-77
2023/01/04 05:10:46;;;;;;;1999.90;999.90;;;;;;;8.25;100.00;99263.63;4960350;28;20058;-77
2023/01/04 05:13:12;;;;;;;1999.90;999.90;;;;;;;8.18;100.00;99262.97;4959748;28;20033;-77
2023/01/04 05:15:40;;;;;;;1999.90;999.90;;;;;;;8.18;100.00;99252.06;4960025;28;20102;-77
2023/01/04 05:18:07;;;;;;;1999.90;999.90;;;;;;;8.28;100.00;99261.28;4960658;28;20039;-79
2023/01/04 05:20:33;;;;;;;1999.90;999.90;;;;;;;8.35;100.00;99264.66;4960048;28;20031;-77
2023/01/04 05:22:58;;;;;;;1999.90;999.90;;;;;;;8.37;100.00;99270.69;4960274;28;20023;-77
2023/01/04 05:25:24;;;;;;;1999.90;999.90;;;;;;;8.37;100.00;99267.97;4959677;28;20055;-77
2023/01/04 05:27:50;;;;;;;1999.90;999.90;;;;;;;8.35;100.00;99272.84;4960181;29;20027;-77
2023/01/04 05:33:00;;;;;;;1999.90;999.90;;;;;;;8.23;100.00;99274.81;4959581;29;20122;-77
2023/01/04 05:35:26;;;;;;;1999.90;999.90;;;;;;;8.16;100.00;99279.59;4962096;28;20071;-79
2023/01/04 05:37:51;;;;;;;1999.90;999.90;;;;;;;8.20;100.00;99277.19;4961166;28;20050;-77
2023/01/04 05:40:17;;;;;;;1999.90;999.90;;;;;;;8.21;100.00;99276.94;4962163;28;20031;-78
2023/01/04 05:42:46;;;;;;;1999.90;999.90;;;;;;;8.24;100.00;99273.72;4962124;28;20023;-78
2023/01/04 05:45:12;;;;;;;1999.90;999.90;;;;;;;8.18;100.00;99274.69;4960812;28;20027;-78
2023/01/04 05:47:38;;;;;;;1999.90;999.90;;;;;;;8.13;100.00;99271.91;4960246;28;20046;-76
2023/01/04 05:50:03;;;;;;;1999.90;999.90;;;;;;;8.24;100.00;99273.72;4959925;28;20064;-77
2023/01/04 05:52:29;;;;;;;1999.90;999.90;;;;;;;8.28;100.00;99274.06;4959588;28;20035;-77
2023/01/04 05:54:54;;;;;;;1999.90;999.90;;;;;;;8.20;100.00;99286.19;4964469;28;20031;-80
2023/01/04 05:57:20;;;;;;;1999.90;999.90;;;;;;;8.22;100.00;99292.22;4966876;28;20039;-79
2023/01/04 05:59:45;;;;;;;1999.90;999.90;;;;;;;8.17;100.00;99289.41;4962234;28;20027;-78
2023/01/04 06:02:22;;;;;;;1999.90;999.90;;;;;;;8.16;100.00;99295.94;4960875;28;20031;-78
2023/01/04 06:04:48;;;;;;;1999.90;999.90;;;;;;;8.21;100.00;99289.72;4960791;28;20086;-78
2023/01/04 06:07:14;;;;;;;1999.90;999.90;;;;;;;8.25;100.00;99291.72;4958114;28;20035;-77
2023/01/04 06:09:40;;;;;;;1999.90;999.90;;;;;;;8.20;100.00;99291.66;4957990;28;20035;-77
2023/01/04 06:12:06;;;;;;;1999.90;999.90;;;;;;;8.27;100.00;99294.22;4958270;28;20058;-75
2023/01/04 06:14:31;;;;;;;1999.90;999.90;;;;;;;8.24;100.00;99292.78;4960046;28;20043;-78
2023/01/04 06:16:57;;;;;;;1999.90;999.90;;;;;;;8.35;100.00;99300.09;4959964;28;20038;-78
2023/01/04 06:19:23;;;;;;;1999.90;999.90;;;;;;;8.29;100.00;99301.09;4958893;28;20078;-77
2023/01/04 06:21:48;;;;;;;1999.90;999.90;;;;;;;8.26;100.00;99304.28;4959256;28;20054;-78
2023/01/04 06:24:14;;;;;;;1999.90;999.90;;;;;;;8.26;100.00;99296.13;4959682;28;20031;-78
2023/01/04 06:26:39;;;;;;;1999.90;999.90;;;;;;;8.27;100.00;99300.47;4960384;28;20039;-78
2023/01/04 06:29:04;;;;;;;1999.90;999.90;;;;;;;8.22;100.00;99307.75;4971578;28;20054;-77
2023/01/04 06:31:30;;;;;;;1999.90;999.90;;;;;;;8.24;100.00;99300.97;4969031;28;20031;-79
2023/01/04 06:33:55;;;;;;;1999.90;999.90;;;;;;;8.30;100.00;99308.19;4965050;28;20026;-76
2023/01/04 06:36:21;;;;;;;1999.90;999.90;;;;;;;8.27;100.00;99300.47;4964479;28;20538;-75
2023/01/04 06:38:48;;;;;;;1999.90;999.90;;;;;;;8.30;100.00;99305.47;4961253;28;20026;-76
2023/01/04 06:41:14;;;;;;;1999.90;999.90;;;;;;;8.30;100.00;99313.63;4966244;28;20377;-76
2023/01/04 06:43:39;;;;;;;1999.90;999.90;;;;;;;8.35;100.00;99319.19;4962481;28;20042;-80
2023/01/04 06:46:07;;;;;;;1999.90;999.90;;;;;;;8.36;100.00;99318.13;4974096;28;20102;-76
2023/01/04 06:48:32;;;;;;;1999.90;999.90;;;;;;;8.35;100.00;99313.75;4973195;28;20064;-76
2023/01/04 06:50:58;;;;;;;1999.90;999.90;;;;;;;8.31;100.00;99309.84;4968198;28;20094;-76
2023/01/04 06:53:23;;;;;;;1999.90;999.90;;;;;;;8.28;100.00;99312.22;4954494;28;20037;-76
2023/01/04 06:55:48;;;;;;;1999.90;999.90;;;;;;;8.24;100.00;99314.59;4964895;28;20159;-76
2023/01/04 06:58:14;;;;;;;1999.90;999.90;;;;;;;8.28;100.00;99318.50;4978193;28;20065;-76
2023/01/04 07:00:39;;;;;;;1999.90;999.90;;;;;;;8.25;100.00;99313.53;4975960;28;20031;-77
2023/01/04 07:03:04;;;;;;;1999.90;999.90;;;;;;;8.29;100.00;99313.91;4974918;28;20102;-74
2023/01/04 07:05:30;;;;;;;1999.90;999.90;;;;;;;8.29;100.00;99316.63;4974751;28;20090;-77
2023/01/04 07:07:58;;;;;;;1999.90;999.90;;;;;;;8.27;100.00;99316.81;4974990;28;20561;-76
2023/01/04 07:10:24;;;;;;;1999.90;999.90;;;;;;;8.25;100.00;99318.97;4975308;28;20030;-76
2023/01/04 07:12:49;;;;;;;1999.90;999.90;;;;;;;8.30;100.00;99321.81;4974031;28;20057;-76
2023/01/04 07:15:14;;;;;;;1999.90;999.90;;;;;;;8.23;100.00;99326.59;4991218;28;20394;-76
2023/01/04 07:17:40;;;;;;;1999.90;999.90;;;;;;;8.20;100.00;99327.06;4975517;28;20043;-76
2023/01/04 07:20:05;;;;;;;1999.90;999.90;;;;;;;8.26;100.00;99320.63;4973036;28;20023;-77
2023/01/04 07:22:31;;;;;;;1999.90;999.90;;;;;;;8.26;100.00;99325.25;4972759;28;20494;-76
2023/01/04 07:24:56;;;;;;;1999.90;999.90;;;;;;;8.33;100.00;99332.22;4972996;28;20042;-77
2023/01/04 07:27:21;;;;;;;1999.90;999.90;;;;;;;8.29;100.00;99335.69;4973727;28;20027;-77
2023/01/04 07:29:47;;;;;;;1999.90;999.90;;;;;;;8.26;100.00;99328.81;4976326;28;20074;-77
2023/01/04 07:32:12;;;;;;;1999.90;999.90;;;;;;;8.38;100.00;99337.78;4975472;28;20026;-74
2023/01/04 07:34:38;;;;;;;1999.90;999.90;;;;;;;8.39;100.00;99330.44;4973790;28;20023;-75
2023/01/04 07:37:06;;;;;;;1999.90;999.90;;;;;;;8.41;100.00;99333.72;4976109;28;20058;-76
2023/01/04 07:39:33;;;;;;;1999.90;999.90;;;;;;;8.37;100.00;99338.00;4976845;28;20023;-76
2023/01/04 07:41:58;;;;;;;1999.90;999.90;;;;;;;8.42;100.00;99340.84;4975862;28;20364;-76
2023/01/04 07:44:27;;;;;;;1999.90;999.90;;;;;;;8.36;100.00;99337.22;4967206;28;20050;-76
2023/01/04 07:46:53;;;;;;;1999.90;999.90;;;;;;;8.32;100.00;99336.03;4956361;28;20035;-76
2023/01/04 07:49:19;;;;;;;1999.90;999.90;;;;;;;8.29;100.00;99332.97;4957095;28;20037;-74
2023/01/04 07:51:46;;;;;;;1999.90;999.90;;;;;;;8.31;100.00;99334.38;4957589;28;20118;-76
2023/01/04 07:54:12;;;;;;;1999.90;999.90;;;;;;;8.30;100.00;99343.63;4959234;28;20440;-76
2023/01/04 07:56:38;;;;;;;1999.90;999.90;;;;;;;8.29;100.00;99333.81;4966018;28;20026;-76
2023/01/04 07:59:08;;;;;;;1999.90;999.90;;;;;;;8.31;100.00;99344.44;4973762;28;20077;-75
2023/01/04 08:01:36;;;;;;;1999.90;999.90;;;;;;;8.33;100.00;99329.50;4973554;28;20046;-77
2023/01/04 08:04:02;;;;;;;1999.90;999.90;;;;;;;8.37;100.00;99347.03;4974528;28;20435;-76
2023/01/04 08:06:27;;;;;;;1999.90;999.90;;;;;;;8.32;100.00;99346.94;4973548;28;20106;-75
2023/01/04 08:08:53;;;;;;;1999.90;999.90;;;;;;;8.28;100.00;99340.31;4974270;28;20041;-76
2023/01/04 08:11:21;;;;;;;1999.90;999.90;;;;;;;8.31;100.00;99333.53;4976349;28;20043;-77
2023/01/04 08:13:47;;;;;;;1999.90;999.90;;;;;;;8.39;100.00;99341.34;4980944;28;20033;-77
2023/01/04 08:16:30;;;;;;;1999.90;999.90;;;;;;;8.39;100.00;99342.16;4978851;28;20035;-76
2023/01/04 08:18:57;;;;;;;1999.90;999.90;;;;;;;8.48;100.00;99346.13;4977316;28;20514;-76
2023/01/04 08:21:23;;;;;;;1999.90;999.90;;;;;;;8.47;100.00;99340.91;4976845;28;20027;-76
2023/01/04 08:23:49;;;;;;;1999.90;999.90;;;;;;;8.56;100.00;99342.97;4977274;28;20038;-76
2023/01/04 08:26:15;;;;;;;1999.90;999.90;;;;;;;8.57;100.00;99347.38;4977533;28;20054;-76
2023/01/04 08:28:41;;;;;;;1999.90;999.90;;;;;;;8.60;100.00;99338.69;4976978;28;20058;-76
2023/01/04 08:31:12;;;;;;;1999.90;999.90;;;;;;;8.75;100.00;99340.00;4977538;28;20033;-76
2023/01/04 08:33:39;;;;;;;1999.90;999.90;;;;;;;8.79;100.00;99341.16;4976500;28;20089;-75
2023/01/04 08:36:26;;;;;;;1999.90;999.90;;;;;;;9.00;100.00;99334.91;4976888;28;20068;-76
2023/01/04 08:38:54;;;;;;;1999.90;999.90;;;;;;;8.83;100.00;99336.88;4976802;28;20058;-75
2023/01/04 08:41:20;;;;;;;1999.90;999.90;;;;;;;9.08;100.00;99326.31;4977018;28;20030;-75
2023/01/04 08:43:45;;;;;;;1999.90;999.90;;;;;;;9.06;100.00;99332.00;4977370;28;20101;-76
2023/01/04 08:46:11;;;;;;;1999.90;999.90;;;;;;;9.02;100.00;99330.06;4977115;28;20506;-76
2023/01/04 08:48:38;;;;;;;1999.90;999.90;;;;;;;9.14;100.00;99330.78;4976837;28;20030;-76
2023/01/04 08:51:10;;;;;;;1999.90;999.90;;;;;;;9.10;100.00;99333.16;4977457;28;20045;-76
2023/01/04 08:53:35;;;;;;;1999.90;999.90;;;;;;;9.23;100.00;99326.53;4976722;28;20041;-76
2023/01/04 08:56:01;;;;;;;1999.90;999.90;;;;;;;9.25;100.00;99335.28;4976933;28;21455;-76
2023/01/04 08:58:28;;;;;;;1999.90;999.90;;;;;;;9.18;100.00;99339.28;4976725;28;20030;-75
2023/01/04 09:00:59;;;;;;;1999.90;999.90;;;;;;;9.03;100.00;99327.06;4976955;28;20391;-76
2023/01/04 09:03:25;;;;;;;1999.90;999.90;;;;;;;9.04;100.00;99334.19;4978235;28;20036;-75
2023/01/04 09:05:50;;;;;;;1999.90;999.90;;;;;;;8.99;100.00;99320.44;4975242;28;20034;-76
2023/01/04 09:08:15;;;;;;;1999.90;999.90;;;;;;;8.99;100.00;99325.09;4976960;28;20472;-76
2023/01/04 09:10:41;;;;;;;1999.90;999.90;;;;;;;9.08;100.00;99331.78;4977330;28;20034;-75
2023/01/04 09:13:06;;;;;;;1999.90;999.90;;;;;;;9.09;100.00;99336.13;4977195;28;20479;-75
2023/01/04 09:15:32;;;;;;;1999.90;999.90;;;;;;;9.00;100.00;99340.38;4978437;28;20041;-73
2023/01/04 09:17:58;;;;;;;1999.90;999.90;;;;;;;9.00;100.00;99327.56;4981787;28;20073;-75
2023/01/04 09:20:23;;;;;;;1999.90;999.90;;;;;;;9.08;100.00;99323.59;4989160;28;20015;-76
2023/01/04 09:22:48;;;;;;;1999.90;999.90;;;;;;;9.08;100.00;99309.94;4988528;28;20030;-76
2023/01/04 09:25:14;;;;;;;1999.90;999.90;;;;;;;9.05;100.00;99319.44;4980545;28;20026;-75
2023/01/04 09:27:39;;;;;;;1999.90;999.90;;;;;;;9.02;100.00;99319.94;4978209;28;20034;-76
2023/01/04 09:30:05;;;;;;;1999.90;999.90;;;;;;;9.00;100.00;99319.38;4978038;28;20043;-75
2023/01/04 09:32:31;;;;;;;1999.90;999.90;;;;;;;9.05;100.00;99319.44;4975839;28;20081;-76
2023/01/04 09:34:56;;;;;;;1999.90;999.90;;;;;;;9.12;100.00;99317.34;4975927;28;20035;-76
2023/01/04 09:37:22;;;;;;;1999.90;999.90;;;;;;;9.16;100.00;99312.22;4976117;28;20043;-76
2023/01/04 09:39:47;;;;;;;1999.90;999.90;;;;;;;9.23;100.00;99314.78;4975515;28;20018;-76
2023/01/04 09:42:47;;;;;;;1999.90;999.90;;;;;;;9.25;100.00;99323.53;4975644;28;20039;-75
2023/01/04 09:45:19;;;;;;;1999.90;999.90;;;;;;;9.29;100.00;99313.75;4954558;29;20046;-76
2023/01/04 09:47:54;;;;;;;1999.90;999.90;;;;;;;9.22;100.00;99308.47;4967749;28;20057;-76
2023/01/04 09:50:32;;;;;;;1999.90;999.90;;;;;;;9.28;100.00;99310.19;4975827;28;20763;-76
2023/01/04 09:53:22;;;;;;;1999.90;999.90;;;;;;;9.26;100.00;99306.91;4975921;28;20038;-76
2023/01/04 09:55:51;;;;;;;1999.90;999.90;;;;;;;9.26;100.00;99298.72;4976004;28;20035;-76
2023/01/04 09:58:28;;;;;;;1999.90;999.90;;;;;;;9.36;100.00;99304.31;4976067;28;20491;-76
2023/01/04 10:01:01;;;;;;;1999.90;999.90;;;;;;;9.36;100.00;99298.00;4975807;28;20023;-76
2023/01/04 10:03:38;;;;;;;1999.90;999.90;;;;;;;9.39;100.00;99303.81;4976626;28;20027;-77
2023/01/04 10:06:08;;;;;;;1999.90;999.90;;;;;;;9.36;100.00;99287.09;4978922;28;20035;-77
2023/01/04 10:08:34;;;;;;;1999.90;999.90;;;;;;;9.31;100.00;99290.56;4980377;28;20029;-75
2023/01/04 10:11:21;;;;;;;1999.90;999.90;;;;;;;9.26;100.00;99285.06;4975506;28;20035;-76
2023/01/04 10:14:01;;;;;;;1999.90;999.90;;;;;;;9.36;100.00;99285.19;4975888;28;20065;-75
2023/01/04 10:16:48;;;;;;;1999.90;999.90;;;;;;;9.35;100.00;99290.91;4976065;28;20034;-76
2023/01/04 10:19:35;;;;;;;1999.90;999.90;;;;;;;9.36;100.00;99277.00;4975060;28;20054;-75
2023/01/04 10:22:24;;;;;;;1999.90;999.90;;;;;;;9.47;100.00;99278.75;4975592;28;20035;-77
2023/01/04 10:24:59;;;;;;;1999.90;999.90;;;;;;;9.55;100.00;99280.22;4975057;28;20043;-75
2023/01/04 10:27:44;;;;;;;1999.90;999.90;;;;;;;9.55;100.00;99275.56;4974967;28;20109;-76
2023/01/04 10:30:35;;;;;;;1999.90;999.90;;;;;;;9.66;100.00;99271.03;4974489;28;20146;-76
2023/01/04 10:33:14;;;;;;;1999.90;999.90;;;;;;;9.77;100.00;99272.00;4975137;28;20447;-76
2023/01/04 10:35:44;;;;;;;1999.90;999.90;;;;;;;10.10;100.00;99266.28;4974707;28;20035;-76
2023/01/04 10:38:15;;;;;;;1999.90;999.90;;;;;;;10.09;100.00;99262.72;4974880;28;20080;-76
2023/01/04 10:40:42;;;;;;;1999.90;999.90;;;;;;;10.11;100.00;99257.00;4975053;28;20059;-76
2023/01/04 10:43:19;;;;;;;1999.90;999.90;;;;;;;10.07;100.00;99258.59;4973532;28;20027;-76
2023/01/04 10:45:56;;;;;;;1999.90;999.90;;;;;;;10.07;100.00;99258.59;4974949;28;20045;-76
2023/01/04 10:48:46;;;;;;;1999.90;999.90;;;;;;;10.08;100.00;99252.91;4974663;28;20145;-76
2023/01/04 10:51:17;;;;;;;1999.90;999.90;;;;;;;10.10;100.00;99250.72;4974708;28;20034;-76
2023/01/04 10:53:50;;;;;;;1999.90;999.90;;;;;;;10.08;100.00;99246.59;4974967;28;20066;-76
2023/01/04 10:56:28;;;;;;;1999.90;999.90;;;;;;;10.10;100.00;99249.88;4974048;28;20037;-75
2023/01/04 10:58:57;;;;;;;1999.90;999.90;;;;;;;10.13;100.00;99244.75;4974798;28;20031;-76
2023/01/04 11:01:43;;;;;;;1999.90;999.90;;;;;;;10.21;100.00;99238.00;4974163;28;20027;-76
2023/01/04 11:04:19;;;;;;;1999.90;999.90;;;;;;;10.29;100.00;99232.03;4974463;28;20045;-76
2023/01/04 11:06:51;;;;;;;1999.90;999.90;;;;;;;10.40;100.00;99235.69;4974229;28;20035;-77
2023/01/04 11:09:31;;;;;;;1999.90;999.90;;;;;;;10.47;100.00;99226.16;4974975;28;20038;-76
2023/01/04 11:11:57;;;;;;;1999.90;999.90;;;;;;;10.52;100.00;99219.91;4974235;28;20054;-75
2023/01/04 11:14:24;;;;;;;1999.90;999.90;;;;;;;10.68;100.00;99224.38;4973747;28;20121;-76
2023/01/04 11:16:55;;;;;;;1999.90;999.90;;;;;;;10.73;100.00;99218.94;4972397;28;20435;-75
2023/01/04 11:19:20;;;;;;;1999.90;999.90;;;;;;;10.87;100.00;99213.81;4973084;28;20036;-75
2023/01/04 11:21:55;;;;;;;1999.90;999.90;;;;;;;10.93;100.00;99216.28;4972958;28;20027;-75
2023/01/04 11:24:22;;;;;;;1999.90;999.90;;;;;;;11.07;100.00;99211.16;4972794;28;20118;-75
2023/01/04 11:26:49;;;;;;;1999.90;999.90;;;;;;;11.09;100.00;99214.44;4973230;28;20387;-76
2023/01/04 11:29:36;;;;;;;1999.90;999.90;;;;;;;10.91;100.00;99203.94;4975492;28;20039;-77
2023/01/04 11:32:10;;;;;;;1999.90;999.90;;;;;;;11.08;100.00;99196.38;4975524;28;20042;-76
2023/01/04 11:34:53;;;;;;;1999.90;999.90;;;;;;;11.15;100.00;99189.53;4976012;28;20034;-76
2023/01/04 11:37:32;;;;;;;1999.90;999.90;;;;;;;11.34;100.00;99187.13;4974420;28;20027;-76
2023/01/04 11:40:16;;;;;;;1999.90;999.90;;;;;;;11.31;100.00;99184.94;4974461;28;20027;-76
2023/01/04 11:42:46;;;;;;;1999.90;999.90;;;;;;;11.28;100.00;99177.25;4974195;28;20438;-76
2023/01/04 11:45:26;;;;;;;1999.90;999.90;;;;;;;11.37;100.00;99175.63;4974483;28;20566;-76
2023/01/04 11:47:54;;;;;;;1999.90;999.90;;;;;;;11.20;100.00;99172.31;4978204;28;20030;-75